createdAt,value
2022-12-19T00:23:41.799Z,44.50
2022-12-19T00:42:53.645Z,37.47
2022-12-19T00:55:47.358Z,46.07
2022-12-19T00:58:15.263Z,43.00
2022-12-19T01:00:43.684Z,40.70
2022-12-19T01:03:11.735Z,43.60
2022-12-19T01:05:41.233Z,40.30
2022-12-19T01:08:12.969Z,42.20
2022-12-19T01:11:09.941Z,41.73
2022-12-19T01:13:48.270Z,41.77
2022-12-19T01:16:49.377Z,40.83
2022-12-19T01:19:44.007Z,41.97
2022-12-19T01:22:24.037Z,44.13
2022-12-19T01:25:00.089Z,42.33
2022-12-19T01:28:48.604Z,41.93
2022-12-19T01:31:25.772Z,42.50
2022-12-19T01:34:13.609Z,40.00
2022-12-19T01:36:48.623Z,42.43
2022-12-19T01:39:30.437Z,44.23
2022-12-19T01:42:19.638Z,39.07
2022-12-19T01:45:20.909Z,45.57
2022-12-19T01:48:05.794Z,41.67
2022-12-19T01:51:01.096Z,40.57
2022-12-19T01:57:07.115Z,45.73
2022-12-19T01:59:46.926Z,42.83
2022-12-19T02:02:27.639Z,42.13
2022-12-19T02:04:58.966Z,43.90
2022-12-19T02:07:31.600Z,45.07
2022-12-19T02:10:00.939Z,45.27
2022-12-19T02:12:40.504Z,46.30
2022-12-19T02:15:15.982Z,44.77
2022-12-19T02:18:32.278Z,45.70
2022-12-19T02:21:38.569Z,43.60
2022-12-19T02:24:29.353Z,42.43
2022-12-19T02:27:17.109Z,43.47
2022-12-19T02:30:10.658Z,47.53
2022-12-19T02:33:03.732Z,44.13
2022-12-19T02:36:09.521Z,46.87
2022-12-19T02:38:47.815Z,46.87
2022-12-19T02:44:57.588Z,44.97
2022-12-19T02:47:39.721Z,42.47
2022-12-19T02:57:20.448Z,42.50
2022-12-19T02:59:57.424Z,44.23
2022-12-19T03:02:59.131Z,43.23
2022-12-19T03:06:14.336Z,42.33
2022-12-19T03:08:58.719Z,43.57
2022-12-19T03:11:36.089Z,41.73
2022-12-19T03:14:08.529Z,47.07
2022-12-19T03:16:46.854Z,45.47
2022-12-19T03:19:25.241Z,47.83
2022-12-19T03:22:03.006Z,44.27
2022-12-19T03:24:42.946Z,48.30
2022-12-19T03:27:38.534Z,46.50
2022-12-19T03:30:18.238Z,47.10
2022-12-19T03:33:04.494Z,48.80
2022-12-19T03:35:48.648Z,45.07
2022-12-19T03:38:24.596Z,44.77
2022-12-19T03:47:02.059Z,41.60
2022-12-19T03:49:36.879Z,45.00
2022-12-19T03:52:28.194Z,46.03
2022-12-19T03:55:27.708Z,42.07
2022-12-19T03:58:12.398Z,41.83
2022-12-19T04:04:07.285Z,42.20
2022-12-19T04:06:49.924Z,45.33
2022-12-19T04:09:58.587Z,43.67
2022-12-19T04:12:36.094Z,43.70
2022-12-19T04:15:17.419Z,43.10
2022-12-19T04:18:14.813Z,41.47
2022-12-19T04:27:08.593Z,41.33
2022-12-19T04:43:57.050Z,40.70
2022-12-19T04:47:50.265Z,44.57
2022-12-19T04:57:01.627Z,43.97
2022-12-19T04:59:32.602Z,41.40
2022-12-19T05:06:16.904Z,43.70
2022-12-19T05:15:55.195Z,46.03
2022-12-19T05:18:34.444Z,49.53
2022-12-19T05:21:11.314Z,45.37
2022-12-19T05:23:44.225Z,43.77
2022-12-19T05:26:15.457Z,44.90
2022-12-19T05:28:47.422Z,46.83
2022-12-19T05:31:21.221Z,43.60
2022-12-19T05:33:52.754Z,46.03
2022-12-19T05:36:32.130Z,48.13
2022-12-19T05:49:31.759Z,40.97
2022-12-19T05:52:02.709Z,43.90
2022-12-19T05:55:18.323Z,45.87
2022-12-19T05:58:10.716Z,46.57
2022-12-19T06:01:00.653Z,47.07
2022-12-19T06:03:28.937Z,50.23
2022-12-19T06:09:25.500Z,44.53
2022-12-19T06:12:32.453Z,48.23
2022-12-19T06:15:03.053Z,50.83
2022-12-19T06:17:31.413Z,48.43
2022-12-19T06:20:07.741Z,39.13
2022-12-19T06:28:48.927Z,43.13
2022-12-19T06:31:17.907Z,43.53
2022-12-19T06:44:20.535Z,42.90
2022-12-19T07:09:37.922Z,48.30
2022-12-19T07:22:07.692Z,51.40
2022-12-19T08:00:23.917Z,55.87
2022-12-19T08:17:41.924Z,62.00
2022-12-19T08:37:16.118Z,57.57
2022-12-19T08:52:34.062Z,51.57
2022-12-19T08:59:31.570Z,52.07
2022-12-19T09:02:00.862Z,48.50
2022-12-19T09:05:59.315Z,56.23
2022-12-19T09:07:17.967Z,50.27
2022-12-19T09:09:45.394Z,52.40
2022-12-19T09:12:13.737Z,53.07
2022-12-19T09:14:41.123Z,53.83
2022-12-19T09:17:09.124Z,55.87
2022-12-19T09:19:36.710Z,51.17
2022-12-19T09:22:38.240Z,47.63
2022-12-19T09:25:33.803Z,56.13
2022-12-19T09:41:41.606Z,64.03
2022-12-19T09:44:31.343Z,49.77
2022-12-19T09:47:13.286Z,49.73
2022-12-19T09:49:43.877Z,53.30
2022-12-19T09:52:18.978Z,48.67
2022-12-19T09:55:19.453Z,52.53
2022-12-19T09:57:53.336Z,53.47
2022-12-19T10:12:46.000Z,48.13
2022-12-19T10:15:23.143Z,50.30
2022-12-19T10:25:43.978Z,49.73
2022-12-19T10:43:30.728Z,57.53
2022-12-19T10:46:11.780Z,58.77
2022-12-19T10:48:43.645Z,61.63
2022-12-19T11:30:46.074Z,59.83
2022-12-19T11:32:42.024Z,57.87
2022-12-19T11:35:25.279Z,55.90
2022-12-19T11:38:12.305Z,64.17
2022-12-19T11:40:57.586Z,58.50
2022-12-19T11:43:51.421Z,57.77
2022-12-19T11:46:40.634Z,62.43
2022-12-19T11:49:40.622Z,64.60
2022-12-19T12:05:56.267Z,70.07
2022-12-19T12:11:16.908Z,59.70
2022-12-19T12:17:53.248Z,48.60
2022-12-19T12:31:32.067Z,50.67
2022-12-19T12:31:54.266Z,49.83
2022-12-19T13:53:43.540Z,50.57
2022-12-19T13:56:23.880Z,42.70
2022-12-19T14:00:00.002Z,43.93
2022-12-19T14:02:44.481Z,46.70
2022-12-19T14:06:14.867Z,46.13
2022-12-19T14:42:14.687Z,57.53
2022-12-19T14:51:51.759Z,56.40
2022-12-19T15:23:57.428Z,48.63
2022-12-19T15:52:21.825Z,45.80
2022-12-19T15:54:52.649Z,52.27
2022-12-19T15:57:56.633Z,50.07
2022-12-19T16:00:35.509Z,60.60
2022-12-19T16:08:31.817Z,53.40
2022-12-19T16:11:26.509Z,51.63
2022-12-19T16:14:22.264Z,50.40
2022-12-19T16:17:43.001Z,49.97
2022-12-19T16:20:30.691Z,53.67
2022-12-19T16:24:17.749Z,55.90
2022-12-19T16:32:41.442Z,49.03
2022-12-19T16:58:43.012Z,56.80
2022-12-19T17:04:48.927Z,53.63
2022-12-19T17:37:28.726Z,58.10
2022-12-19T17:40:33.659Z,64.10
2022-12-19T17:54:39.676Z,53.33
2022-12-19T17:57:36.300Z,57.07
2022-12-19T18:00:37.299Z,52.07
2022-12-19T18:04:00.648Z,67.73
2022-12-19T18:06:41.059Z,50.20
2022-12-19T18:09:24.036Z,58.63
2022-12-19T18:18:20.235Z,59.97
2022-12-19T18:20:49.326Z,63.13
2022-12-19T18:23:19.437Z,58.77
2022-12-19T18:26:12.325Z,58.93
2022-12-19T18:43:04.751Z,55.87
2022-12-19T18:50:30.422Z,52.37
2022-12-19T20:04:42.906Z,56.80
